createdAt,value
2017-11-24T00:02:11.727Z,99535.80
2017-11-24T00:04:38.179Z,99533.77
2017-11-24T00:07:04.625Z,99532.50
2017-11-24T00:09:30.952Z,99541.65
2017-11-24T00:11:57.511Z,99542.22
2017-11-24T00:14:23.918Z,99540.14
2017-11-24T00:16:50.431Z,99542.45
2017-11-24T00:19:16.891Z,99539.84
2017-11-24T00:21:43.255Z,99545.97
2017-11-24T00:24:09.772Z,99547.84
2017-11-24T00:26:36.091Z,99548.75
2017-11-24T00:29:03.346Z,99544.77
2017-11-24T00:31:29.789Z,99546.92
2017-11-24T00:33:56.151Z,99543.49
2017-11-24T00:36:22.663Z,99546.50
2017-11-24T00:38:49.191Z,99553.73
2017-11-24T00:41:15.634Z,99551.30
2017-11-24T00:43:42.060Z,99549.05
2017-11-24T00:46:09.219Z,99548.63
2017-11-24T00:48:35.643Z,99541.77
2017-11-24T00:51:02.077Z,99542.14
2017-11-24T00:53:28.511Z,99543.88
2017-11-24T00:55:55.053Z,99545.09
2017-11-24T00:58:21.483Z,99542.27
2017-11-24T01:00:47.919Z,99541.80
2017-11-24T01:03:15.078Z,99536.51
2017-11-24T01:05:41.440Z,99533.84
2017-11-24T01:08:07.859Z,99535.43
2017-11-24T01:10:34.279Z,99538.53
2017-11-24T01:13:00.671Z,99563.97
2017-11-24T01:15:27.113Z,99534.58
2017-11-24T01:17:53.602Z,99539.97
2017-11-24T01:20:20.728Z,99537.17
2017-11-24T01:22:47.322Z,99538.42
2017-11-24T01:25:13.698Z,99538.23
2017-11-24T01:27:40.133Z,99537.16
2017-11-24T01:30:06.570Z,99538.98
2017-11-24T01:32:32.935Z,99537.73
2017-11-24T01:34:59.266Z,99539.56
2017-11-24T01:37:26.487Z,99531.59
2017-11-24T01:39:52.921Z,99533.45
2017-11-24T01:42:19.355Z,99534.30
2017-11-24T01:44:45.789Z,99533.66
2017-11-24T01:47:12.122Z,99535.30
2017-11-24T01:49:38.662Z,99531.64
2017-11-24T01:52:05.094Z,99533.00
2017-11-24T01:54:32.375Z,99531.36
2017-11-24T01:56:58.989Z,99535.98
2017-11-24T01:59:25.430Z,99530.88
2017-11-24T02:01:51.966Z,99529.40
2017-11-24T02:04:18.326Z,99533.13
2017-11-24T02:06:44.836Z,99534.08
2017-11-24T02:09:11.210Z,99526.20
2017-11-24T02:11:38.434Z,99530.19
2017-11-24T02:14:04.849Z,99532.55
2017-11-24T02:16:31.213Z,99538.09
2017-11-24T02:18:57.614Z,99532.84
2017-11-24T02:21:23.949Z,99528.86
2017-11-24T02:23:50.389Z,99521.67
2017-11-24T02:26:16.807Z,99530.89
2017-11-24T02:28:43.884Z,99535.27
2017-11-24T02:31:10.407Z,99542.08
2017-11-24T02:33:36.807Z,99532.55
2017-11-24T02:36:03.274Z,99540.57
2017-11-24T02:38:29.718Z,99539.77
2017-11-24T02:40:56.141Z,99544.63
2017-11-24T02:43:22.686Z,99549.05
2017-11-24T02:45:49.727Z,99546.97
2017-11-24T02:48:16.171Z,99551.09
2017-11-24T02:50:42.636Z,99554.94
2017-11-24T02:53:09.035Z,99555.39
2017-11-24T02:55:35.466Z,99559.81
2017-11-24T02:58:01.903Z,99564.48
2017-11-24T03:00:28.958Z,99559.53
2017-11-24T03:02:55.493Z,99564.31
2017-11-24T03:05:21.921Z,99535.67
2017-11-24T03:07:48.357Z,99536.87
2017-11-24T03:10:14.810Z,99563.83
2017-11-24T03:12:41.218Z,99564.77
2017-11-24T03:15:07.668Z,99559.81
2017-11-24T03:17:34.102Z,99558.81
2017-11-24T03:20:01.246Z,99563.00
2017-11-24T03:22:27.708Z,99557.66
2017-11-24T03:24:54.124Z,99558.94
2017-11-24T03:27:20.550Z,99555.73
2017-11-24T03:29:47.013Z,99559.26
2017-11-24T03:32:13.424Z,99550.73
2017-11-24T03:34:39.875Z,99553.92
2017-11-24T03:37:07.014Z,99548.81
2017-11-24T03:39:33.452Z,99553.17
2017-11-24T03:41:59.881Z,99548.25
2017-11-24T03:44:26.308Z,99546.99
2017-11-24T03:46:52.753Z,99551.61
2017-11-24T03:49:19.109Z,99547.55
2017-11-24T03:51:45.516Z,99546.97
2017-11-24T03:54:12.662Z,99550.34
2017-11-24T03:56:39.098Z,99548.42
2017-11-24T03:59:05.533Z,99542.94
2017-11-24T04:01:31.985Z,99546.31
2017-11-24T04:03:58.411Z,99541.59
2017-11-24T04:06:24.845Z,99538.27
2017-11-24T04:08:51.272Z,99537.17
2017-11-24T04:11:18.421Z,99542.63
2017-11-24T04:13:44.875Z,99537.07
2017-11-24T04:16:11.216Z,99541.69
2017-11-24T04:18:37.623Z,99539.82
2017-11-24T04:21:04.057Z,99531.39
2017-11-24T04:23:30.493Z,99535.80
2017-11-24T04:25:56.935Z,99536.56
2017-11-24T04:28:24.086Z,99532.30
2017-11-24T04:30:50.512Z,99535.59
2017-11-24T04:33:16.947Z,99530.97
2017-11-24T04:35:43.382Z,99535.81
2017-11-24T04:38:09.825Z,99535.26
2017-11-24T04:40:36.251Z,99529.01
2017-11-24T04:43:02.689Z,99544.61
2017-11-24T04:45:29.849Z,99542.14
2017-11-24T04:47:56.273Z,99540.33
2017-11-24T04:50:22.716Z,99542.14
2017-11-24T04:52:49.150Z,99539.62
2017-11-24T04:55:15.543Z,99536.44
2017-11-24T04:57:41.909Z,99535.52
2017-11-24T05:00:08.442Z,99536.63
2017-11-24T05:02:35.572Z,99532.44
2017-11-24T05:05:01.930Z,99534.75
2017-11-24T05:07:28.318Z,99532.46
2017-11-24T05:09:54.806Z,99531.98
2017-11-24T05:12:21.195Z,99528.95
2017-11-24T05:14:47.667Z,99529.95
2017-11-24T05:17:14.108Z,99530.23
2017-11-24T05:19:41.287Z,99533.38
2017-11-24T05:22:07.700Z,99533.59
2017-11-24T05:24:34.122Z,99530.30
2017-11-24T05:27:00.490Z,99538.49
2017-11-24T05:29:26.892Z,99533.03
2017-11-24T05:31:53.333Z,99534.02
2017-11-24T05:34:19.762Z,99536.97
2017-11-24T05:36:46.920Z,99544.37
2017-11-24T05:39:13.346Z,99542.49
2017-11-24T05:41:39.789Z,99540.72
2017-11-24T05:44:06.219Z,99552.35
2017-11-24T05:46:32.650Z,99552.55
2017-11-24T05:48:58.982Z,99550.25
2017-11-24T05:51:25.416Z,99556.39
2017-11-24T05:53:52.506Z,99558.22
2017-11-24T05:56:18.903Z,99554.22
2017-11-24T05:58:45.337Z,99561.58
2017-11-24T06:01:11.779Z,99563.88
2017-11-24T06:03:38.206Z,99565.05
2017-11-24T06:06:04.851Z,99567.13
2017-11-24T06:08:31.211Z,99565.16
2017-11-24T06:10:57.705Z,99564.53
2017-11-24T06:13:24.150Z,99564.41
2017-11-24T06:15:50.589Z,99567.01
2017-11-24T06:18:17.955Z,99568.54
2017-11-24T06:20:44.482Z,99565.73
2017-11-24T06:23:10.909Z,99572.55
2017-11-24T06:25:37.616Z,99572.69
2017-11-24T06:28:04.079Z,99567.66
2017-11-24T06:30:30.519Z,99577.45
2017-11-24T06:32:57.027Z,99574.58
2017-11-24T06:35:23.388Z,99566.48
2017-11-24T06:37:49.928Z,99566.49
2017-11-24T06:40:16.676Z,99573.13
2017-11-24T06:42:43.111Z,99573.36
2017-11-24T06:45:09.796Z,99572.77
2017-11-24T06:47:36.905Z,99577.05
2017-11-24T06:50:03.807Z,99575.22
2017-11-24T06:52:30.389Z,99560.66
2017-11-24T06:54:57.333Z,99576.19
2017-11-24T06:57:23.760Z,99568.84
2017-11-24T06:59:50.297Z,99566.50
2017-11-24T07:02:16.730Z,99571.38
2017-11-24T07:04:43.472Z,99574.23
2017-11-24T07:12:13.221Z,99582.45
2017-11-24T07:14:39.657Z,99580.09
2017-11-24T07:17:06.090Z,99586.30
2017-11-24T07:22:04.098Z,99579.53
2017-11-24T07:24:30.513Z,99581.19
2017-11-24T07:26:58.159Z,99588.95
2017-11-24T07:29:25.033Z,99575.40
2017-11-24T07:31:51.568Z,99590.36
2017-11-24T07:34:18.087Z,99586.44
2017-11-24T07:36:44.639Z,99590.18
2017-11-24T07:39:11.003Z,99588.59
2017-11-24T07:41:37.718Z,99589.16
2017-11-24T07:54:10.256Z,99588.45
2017-11-24T07:56:36.695Z,99587.70
2017-11-24T07:59:03.124Z,99594.93
2017-11-24T08:01:30.002Z,99593.77
2017-11-24T08:03:56.931Z,99592.59
2017-11-24T08:06:23.556Z,99593.59
2017-11-24T08:08:50.487Z,99589.45
2017-11-24T08:11:17.053Z,99586.39
2017-11-24T08:13:43.857Z,99585.24
2017-11-24T08:16:10.843Z,99595.16
2017-11-24T08:18:37.573Z,99585.72
2017-11-24T08:21:04.117Z,99583.88
2017-11-24T08:23:30.916Z,99583.63
2017-11-24T08:25:57.601Z,99590.02
2017-11-24T08:28:24.272Z,99583.54
2017-11-24T08:30:51.140Z,99588.55
2017-11-24T08:33:17.589Z,99580.34
2017-11-24T08:35:44.254Z,99579.39
2017-11-24T08:38:11.097Z,99571.38
2017-11-24T08:40:37.567Z,99581.42
2017-11-24T08:43:04.075Z,99577.36
2017-11-24T08:45:30.614Z,99566.23
2017-11-24T08:47:57.705Z,99563.78
2017-11-24T08:50:24.195Z,99559.00
2017-11-24T08:52:50.730Z,99559.25
2017-11-24T08:55:17.575Z,99560.03
2017-11-24T08:57:44.111Z,99555.42
2017-11-24T09:00:10.515Z,99545.38
2017-11-24T09:02:37.390Z,99548.08
2017-11-24T09:05:03.926Z,99548.66
2017-11-24T09:07:30.362Z,99556.76
2017-11-24T09:09:57.000Z,99539.62
2017-11-24T09:12:23.443Z,99547.70
2017-11-24T09:14:49.972Z,99520.20
2017-11-24T09:17:17.173Z,99534.53
2017-11-24T09:19:43.558Z,99533.45
2017-11-24T09:22:10.000Z,99527.83
2017-11-24T09:24:36.522Z,99505.25
2017-11-24T09:27:03.484Z,99513.31
2017-11-24T09:29:29.879Z,99516.70
2017-11-24T09:31:56.278Z,99515.20
2017-11-24T09:34:22.892Z,99506.72
2017-11-24T10:05:42.673Z,99491.27
2017-11-24T10:08:09.110Z,99493.89
2017-11-24T10:10:35.541Z,99495.52
2017-11-24T10:13:02.455Z,99490.52
2017-11-24T10:15:28.875Z,99487.98
2017-11-24T10:17:56.391Z,99464.38
2017-11-24T10:20:23.625Z,99490.88
2017-11-24T10:29:54.322Z,99475.95
2017-11-24T10:32:20.863Z,99483.63
2017-11-24T10:34:47.705Z,99485.34
2017-11-24T10:37:14.444Z,99485.69
2017-11-24T10:39:40.879Z,99479.64
2017-11-24T10:42:07.586Z,99480.92
2017-11-24T10:44:34.984Z,99486.88
2017-11-24T10:47:02.074Z,99491.80
2017-11-24T10:49:28.562Z,99488.44
2017-11-24T10:51:55.898Z,99481.05
2017-11-24T10:56:53.624Z,99485.22
2017-11-24T10:59:20.525Z,99483.25
2017-11-24T11:01:47.086Z,99486.48
2017-11-24T11:04:13.628Z,99485.33
2017-11-24T11:06:40.742Z,99487.25
2017-11-24T11:09:07.412Z,99490.08
2017-11-24T11:11:33.887Z,99486.45
2017-11-24T11:14:00.592Z,99488.08
2017-11-24T11:16:27.411Z,99480.50
2017-11-24T11:18:53.981Z,99488.97
2017-11-24T11:21:20.303Z,99493.26
2017-11-24T11:23:46.914Z,99487.42
2017-11-24T11:26:13.318Z,99484.97
2017-11-24T11:28:39.729Z,99496.09
2017-11-24T11:31:06.455Z,99491.42
2017-11-24T11:33:33.001Z,99493.80
2017-11-24T11:35:59.425Z,99500.02
2017-11-24T11:38:26.336Z,99495.34
2017-11-24T11:40:52.771Z,99486.55
2017-11-24T11:43:19.241Z,99505.58
2017-11-24T11:45:46.817Z,99504.36
2017-11-24T11:54:15.565Z,99503.44
2017-11-24T11:56:41.969Z,99507.50
2017-11-24T11:59:08.356Z,99510.86
2017-11-24T12:01:34.841Z,99508.77
2017-11-24T12:09:19.277Z,99520.81
2017-11-24T12:11:45.775Z,99514.56
2017-11-24T12:14:12.445Z,99494.47
2017-11-24T12:16:38.907Z,99518.65
2017-11-24T12:23:38.266Z,99522.05
2017-11-24T12:26:05.746Z,99525.66
2017-11-24T12:32:53.759Z,99523.70
2017-11-24T12:35:20.141Z,99519.52
2017-11-24T12:37:46.583Z,99525.36
2017-11-24T12:42:48.753Z,99514.23
2017-11-24T12:45:15.229Z,99504.92
2017-11-24T12:58:28.920Z,99528.45
2017-11-24T13:00:55.459Z,99520.72
2017-11-24T13:11:08.592Z,99536.08
2017-11-24T13:13:35.077Z,99540.45
2017-11-24T13:16:02.024Z,99540.06
2017-11-24T13:21:59.920Z,99541.30
2017-11-24T13:24:26.510Z,99543.05
2017-11-24T13:26:52.974Z,99543.30
2017-11-24T13:29:19.949Z,99538.78
2017-11-24T13:31:46.461Z,99531.54
2017-11-24T13:34:13.352Z,99536.45
2017-11-24T13:36:39.752Z,99542.42
2017-11-24T13:39:06.192Z,99543.33
2017-11-24T13:41:33.233Z,99542.39
2017-11-24T13:43:59.871Z,99550.95
2017-11-24T13:46:26.303Z,99527.59
2017-11-24T13:48:52.738Z,99547.06
2017-11-24T13:51:19.071Z,99550.91
2017-11-24T13:53:45.813Z,99545.66
2017-11-24T13:56:12.189Z,99545.08
2017-11-24T13:58:38.580Z,99548.22
2017-11-24T14:01:05.032Z,99552.51
2017-11-24T14:03:31.590Z,99549.45
2017-11-24T14:05:58.783Z,99491.72
2017-11-24T14:08:26.200Z,99534.88
2017-11-24T14:10:53.365Z,99552.52
2017-11-24T14:13:19.970Z,99555.47
2017-11-24T14:15:46.388Z,99554.26
2017-11-24T14:18:13.034Z,99555.80
2017-11-24T14:20:39.461Z,99553.59
2017-11-24T14:23:05.910Z,99561.81
2017-11-24T14:25:32.331Z,99554.40
2017-11-24T14:27:59.210Z,99556.75
2017-11-24T14:30:25.608Z,99553.56
2017-11-24T14:32:51.941Z,99553.67
2017-11-24T14:35:18.410Z,99553.58
2017-11-24T14:37:44.757Z,99550.49
2017-11-24T14:40:11.260Z,99559.39
2017-11-24T14:42:37.682Z,99555.53
2017-11-24T14:45:04.227Z,99555.24
2017-11-24T14:47:30.652Z,99559.55
2017-11-24T14:49:56.984Z,99562.45
2017-11-24T14:52:23.486Z,99562.95
2017-11-24T14:54:50.672Z,99560.44
2017-11-24T14:57:17.135Z,99565.86
2017-11-24T14:59:43.913Z,99560.02
2017-11-24T15:02:10.395Z,99572.19
2017-11-24T15:04:36.934Z,99575.59
2017-11-24T15:07:03.291Z,99567.16
2017-11-24T15:09:29.800Z,99573.08
2017-11-24T15:11:56.330Z,99567.94
2017-11-24T15:14:22.876Z,99575.02
2017-11-24T15:16:49.267Z,99572.50
2017-11-24T15:19:15.736Z,99542.77
2017-11-24T15:21:42.376Z,99579.50
2017-11-24T15:24:08.913Z,99576.52
2017-11-24T15:26:35.278Z,99587.42
2017-11-24T15:29:01.710Z,99591.01
2017-11-24T15:31:28.558Z,99589.17
2017-11-24T15:33:54.990Z,99594.39
2017-11-24T15:36:21.418Z,99592.03
2017-11-24T15:38:47.941Z,99600.23
2017-11-24T15:41:14.365Z,99600.84
2017-11-24T15:43:40.903Z,99602.39
2017-11-24T15:46:07.267Z,99598.95
2017-11-24T15:48:33.779Z,99600.97
2017-11-24T15:56:03.430Z,99606.30
2017-11-24T15:58:30.075Z,99598.20
2017-11-24T16:00:57.117Z,99602.03
2017-11-24T16:05:55.629Z,99594.37
2017-11-24T16:08:22.138Z,99600.27
2017-11-24T16:10:48.671Z,99600.48
2017-11-24T16:13:15.214Z,99596.48
2017-11-24T16:35:53.494Z,99600.91
2017-11-24T16:38:19.930Z,99593.55
2017-11-24T16:40:46.358Z,99594.98
2017-11-24T16:43:14.020Z,99598.15
2017-11-24T16:45:40.453Z,99593.41
2017-11-24T16:48:06.886Z,99600.86
2017-11-24T16:50:33.256Z,99596.94
2017-11-24T16:52:59.654Z,99599.14
2017-11-24T16:55:26.034Z,99603.64
2017-11-24T16:57:52.551Z,99601.48
2017-11-24T17:00:18.958Z,99599.10
2017-11-24T17:02:45.429Z,99599.56
2017-11-24T17:05:12.016Z,99597.20
2017-11-24T17:07:38.490Z,99599.36
2017-11-24T17:10:05.012Z,99600.88
2017-11-24T17:12:31.448Z,99602.46
2017-11-24T17:14:57.885Z,99595.58
2017-11-24T17:17:24.308Z,99593.84
2017-11-24T17:19:50.747Z,99601.25
2017-11-24T17:22:17.862Z,99600.53
2017-11-24T17:24:44.439Z,99602.64
2017-11-24T17:27:10.876Z,99596.84
2017-11-24T17:29:37.300Z,99607.42
2017-11-24T17:32:03.716Z,99599.61
2017-11-24T17:34:30.189Z,99605.64
2017-11-24T17:36:56.603Z,99599.89
2017-11-24T17:39:23.789Z,99607.14
2017-11-24T17:41:50.190Z,99608.20
2017-11-24T17:44:16.633Z,99610.30
2017-11-24T17:46:43.059Z,99620.61
2017-11-24T17:49:09.504Z,99610.66
2017-11-24T17:51:35.937Z,99606.88
2017-11-24T17:54:02.295Z,99601.43
2017-11-24T17:56:29.617Z,99595.47
2017-11-24T17:58:56.060Z,99599.06
2017-11-24T18:01:22.495Z,99602.94
2017-11-24T18:03:48.928Z,99602.04
2017-11-24T18:06:15.364Z,99609.30
2017-11-24T18:08:41.790Z,99604.08
2017-11-24T18:11:08.225Z,99605.97
2017-11-24T18:13:35.376Z,99613.05
2017-11-24T18:16:01.812Z,99609.10
2017-11-24T18:18:28.245Z,99611.97
2017-11-24T18:20:54.689Z,99620.10
2017-11-24T18:23:21.133Z,99621.20
2017-11-24T18:25:47.661Z,99627.70
2017-11-24T18:28:14.086Z,99633.92
2017-11-24T18:30:41.238Z,99635.67
2017-11-24T18:33:07.673Z,99644.19
2017-11-24T18:35:34.107Z,99651.23
2017-11-24T18:38:00.423Z,99651.52
2017-11-24T18:40:26.984Z,99657.37
2017-11-24T18:42:53.411Z,99653.34
2017-11-24T18:45:19.816Z,99652.97
2017-11-24T18:47:46.986Z,99658.66
2017-11-24T18:50:13.366Z,99661.64
2017-11-24T18:52:39.976Z,99655.63
2017-11-24T18:55:06.303Z,99651.16
2017-11-24T18:57:32.739Z,99660.99
2017-11-24T18:59:59.284Z,99657.95
2017-11-24T19:02:25.708Z,99655.63
2017-11-24T19:04:52.961Z,99663.08
2017-11-24T19:07:19.397Z,99666.88
2017-11-24T19:09:45.806Z,99665.30
2017-11-24T19:12:12.275Z,99673.13
2017-11-24T19:14:38.727Z,99671.61
2017-11-24T19:17:05.137Z,99688.11
2017-11-24T19:19:31.598Z,99673.19
2017-11-24T19:21:58.619Z,99680.83
2017-11-24T19:24:24.950Z,99677.06
2017-11-24T19:26:51.281Z,99677.77
2017-11-24T19:29:17.717Z,99674.34
2017-11-24T19:31:44.159Z,99674.73
2017-11-24T19:34:10.599Z,99676.61
2017-11-24T19:36:36.996Z,99671.15
2017-11-24T19:39:04.245Z,99677.36
2017-11-24T19:41:30.718Z,99679.08
2017-11-24T19:43:57.143Z,99679.42
2017-11-24T19:46:23.476Z,99678.45
2017-11-24T19:48:49.919Z,99675.66
2017-11-24T19:51:16.344Z,99686.02
2017-11-24T19:53:42.779Z,99687.55
2017-11-24T19:56:09.932Z,99691.19
2017-11-24T19:58:36.300Z,99688.17
2017-11-24T20:01:02.775Z,99687.55
2017-11-24T20:03:29.245Z,99696.10
2017-11-24T20:05:55.670Z,99693.45
2017-11-24T20:08:22.114Z,99695.54
2017-11-24T20:10:48.436Z,99699.75
2017-11-24T20:13:15.691Z,99715.14
2017-11-24T20:15:42.133Z,99718.63
2017-11-24T20:18:08.559Z,99701.22
2017-11-24T20:20:34.927Z,99717.58
2017-11-24T20:23:01.327Z,99724.55
2017-11-24T20:25:27.762Z,99730.89
2017-11-24T20:27:54.196Z,99734.83
2017-11-24T20:30:21.426Z,99733.21
2017-11-24T20:32:47.870Z,99736.20
2017-11-24T20:35:14.312Z,99731.06
2017-11-24T20:37:40.755Z,99733.92
2017-11-24T20:40:07.187Z,99733.53
2017-11-24T20:42:33.587Z,99730.23
2017-11-24T20:45:00.068Z,99724.37
2017-11-24T20:47:27.218Z,99732.27
2017-11-24T20:49:53.651Z,99734.05
2017-11-24T20:52:20.007Z,99740.52
2017-11-24T20:54:46.410Z,99746.38
2017-11-24T20:57:12.844Z,99749.68
2017-11-24T20:59:39.391Z,99750.66
2017-11-24T21:02:05.756Z,99752.50
2017-11-24T21:04:32.987Z,99753.12
2017-11-24T21:06:59.536Z,99751.99
2017-11-24T21:09:25.942Z,99761.89
2017-11-24T21:11:52.382Z,99754.59
2017-11-24T21:14:18.809Z,99751.23
2017-11-24T21:16:45.246Z,99747.02
2017-11-24T21:19:11.683Z,99746.66
2017-11-24T21:21:38.842Z,99745.69
2017-11-24T21:24:05.275Z,99748.59
2017-11-24T21:26:31.701Z,99747.84
2017-11-24T21:28:58.117Z,99750.56
2017-11-24T21:31:24.453Z,99750.63
2017-11-24T21:33:50.764Z,99753.64
2017-11-24T21:36:17.232Z,99750.53
2017-11-24T21:38:44.321Z,99757.25
2017-11-24T21:41:10.717Z,99748.78
2017-11-24T21:43:37.161Z,99746.59
2017-11-24T21:46:03.586Z,99738.69
2017-11-24T21:48:30.123Z,99739.16
2017-11-24T21:50:56.455Z,99732.41
2017-11-24T21:53:23.000Z,99735.39
2017-11-24T21:55:50.041Z,99711.30
2017-11-24T21:58:16.485Z,99727.09
2017-11-24T22:00:43.014Z,99701.19
2017-11-24T22:03:09.449Z,99729.22
2017-11-24T22:05:35.883Z,99717.02
2017-11-24T22:08:02.318Z,99718.66
2017-11-24T22:10:28.751Z,99719.39
2017-11-24T22:12:56.025Z,99712.22
2017-11-24T22:15:22.440Z,99708.22
2017-11-24T22:17:48.883Z,99717.01
2017-11-24T22:20:15.310Z,99715.46
2017-11-24T22:22:41.744Z,99703.92
2017-11-24T22:25:08.116Z,99711.69
2017-11-24T22:27:34.520Z,99705.09
2017-11-24T22:30:01.743Z,99707.59
2017-11-24T22:32:28.208Z,99704.33
2017-11-24T22:34:54.643Z,99702.08
2017-11-24T22:37:21.051Z,99703.00
2017-11-24T22:39:47.400Z,99707.78
2017-11-24T22:42:13.804Z,99702.55
2017-11-24T22:44:40.270Z,99700.45
2017-11-24T22:47:07.422Z,99705.83
2017-11-24T22:49:33.798Z,99710.48
2017-11-24T22:52:00.301Z,99704.09
2017-11-24T22:54:26.724Z,99700.73
2017-11-24T22:56:53.262Z,99703.46
2017-11-24T22:59:19.698Z,99701.91
2017-11-24T23:01:46.131Z,99703.66
2017-11-24T23:04:13.283Z,99708.98
2017-11-24T23:06:39.622Z,99677.05
2017-11-24T23:09:06.057Z,99705.97
2017-11-24T23:11:32.493Z,99703.44
2017-11-24T23:13:58.921Z,99702.71
2017-11-24T23:16:25.362Z,99700.78
2017-11-24T23:18:51.797Z,99701.89
2017-11-24T23:21:18.947Z,99705.03
2017-11-24T23:23:45.383Z,99699.86
2017-11-24T23:26:11.817Z,99698.74
2017-11-24T23:28:38.242Z,99705.63
2017-11-24T23:31:04.687Z,99707.08
2017-11-24T23:33:31.113Z,99706.32
2017-11-24T23:35:57.549Z,99709.05
2017-11-24T23:38:24.597Z,99716.53
2017-11-24T23:40:50.931Z,99715.70
2017-11-24T23:43:17.391Z,99712.83
2017-11-24T23:45:43.801Z,99712.19
2017-11-24T23:48:10.233Z,99721.31
2017-11-24T23:50:36.667Z,99711.02
2017-11-24T23:53:03.104Z,99712.20
2017-11-24T23:55:30.355Z,99706.61
2017-11-24T23:57:56.799Z,99704.36
